Southeast Iowa Regional Airport
KBRL : rendu visible

Aérodrome :











RETROUVEZ-NOUS SUR...

 
LOGIN :

S'inscrire | Disclaimer

   EN    FR    IT 

 









Légende :    VFR   VFR Marginal   IFR   IFR Intensif   IFR Très Intensif
Visi : 
Plafond : 
>= 8 km
>= 3000ft
5 à 8 km
1000 à 3000 ft
1500m à 5 km
500 à 1000 ft
800 à 1500m
200 à 500 ft
< 800m
< 200 ft
Symboles :   Orages  Brouillard  Fortes neiges  Fortes précipitations  Vent > 20 kt






- Altitude de l'aérodrome : 698 ft
- Code IATA : BRL


KBRL - Southeast Iowa Regional

DERNIER METAR :
  • 220653Z AUTO 00000KT 10SM CLR 14/12 A3021 RMK AO2 SLP226 T01390122 $

METARs EXPIRÉS :
  • 220553Z AUTO 00000KT 10SM CLR 13/11 A3021 RMK AO2 SLP227 T01330111 10217 20133 402560100 58003 $
  • 220453Z AUTO 19004KT 10SM CLR 15/12 A3022 RMK AO2 SLP231 T01500117 $

TAF KBRL
Valide du 22 à 06h jusqu'au 23 à 06h UTC


220520Z 2206/2306 16004KT P6SM SCT150
FM221400 20006KT P6SM SCT150
FIR KZAU / Amérique du Nord



MET'MAP, la Météo Aéronautique d'un coup d'oeil ! - Copyright ORBIFLY Décembre 2007 - Disclaimer

ORBIFLY MET'MAP TEAM :

Programmation & Développement : Alexandra Zaïnal
Sur une idée originale de : Baudouin d'Aumeries
Assistance à la programmation : Marc-Olivier Méhu
Soutien technique & logistique : Manuel Goepfert

Contact : metmap@orbifly.com




SOURCES & CREDITS :

   NOAA       Earth
Advisory